Aérodrome :
LOGIN :

S'inscrire | Disclaimer

   EN    FR    IT 

 










Légende :    VFR   VFR Marginal   IFR   IFR Intensif   IFR Très Intensif
Visi : 
Plafond : 
>= 8 km
>= 3000ft
5 à 8 km
1000 à 3000 ft
1500m à 5 km
500 à 1000 ft
800 à 1500m
200 à 500 ft
< 800m
< 200 ft
Symboles :   Orages  Brouillard  Fortes neiges  Fortes précipitations  Vent > 20 kt
SIGMETs :   Divers  Orages  Givrage  Turbulence  Onde Orograph.  Cendres Volcan.







- Altitude de l'aérodrome : 408 ft
- Code IATA : FKB


EDSB - Karlsruhe Baden Baden

DERNIER METAR :
  • 140350Z AUTO 26020G38KT 210V300 7000 FEW016/// BKN019/// OVC042/// 05/04 Q0998

METARs EXPIRÉS :
  • 140320Z AUTO 19017KT 9999 BKN043/// BKN055/// 07/05 Q0995
  • 140250Z AUTO 20015KT 9999 FEW035/// BKN040/// OVC050/// 08/05 Q0996
  • 140220Z AUTO 21013KT 9999 BKN031/// BKN038/// BKN058/// 08/05 Q0997
  • 140150Z AUTO 22014KT 9999 FEW030/// BKN044/// OVC052/// 08/05 Q0997
  • 140120Z AUTO 22014KT 9999 FEW022/// OVC059/// 08/06 Q0997

TAF TAF EDSB
Valide du 13 à 18h jusqu'au 14 à 18h UTC


131700Z 1318/1418 20015G25KT 9999 BKN035
TEMPO 1318/1406 21020G30KT 4500 RA BKN012
PROB30
TEMPO 1409/1418 22020G30KT SHRA BKN020CB
Pas de NOTAMs connus pour ce terrain.
1 SIGMET publié pour la FIR Langen (EDGG) :
 
Turbulence forte
EDGG SIGMET 1 VALID 140200/140500 EDZF
EDGG LANGEN FIR SEV TURB FCST S OF N4930 SFC/5000FT MOV E NC=



MET'MAP, la Météo Aéronautique d'un coup d'oeil ! - Copyright ORBIFLY Décembre 2007 - Disclaimer

ORBIFLY MET'MAP TEAM :

Programmation & Développement : Alexandra Zaïnal
Conception & Développement : Baudouin d'Aumeries
Co-Programmation & Développement : Marc-Olivier Méhu
Soutien technique & logistique : Manuel Goepfert

Contact : metmap@orbifly.com




SOURCES & CREDITS :

   NOAA